Time;durP1;ratioP1;P1;durP2;ratioP2;P2;SDS_P1;SDS_P2;PMS_P1;PMS_P2;Temp;Humidity;BMP_temperature;BMP_pressure;BME280_temperature;BME280_humidity;BME280_pressure;Samples;Min_cycle;Max_cycle;Signal;HPM_P1;HPM_P2
2021/09/11 00:02:33;;;;;;;12.48;6.03;;;;;;;;;;8207229;28;20608;-71
2021/09/11 00:06:39;;;;;;;13.18;6.10;;;;;;;;;;8214128;28;20354;-72
2021/09/11 00:10:45;;;;;;;12.23;6.38;;;;;;;;;;8225722;28;20484;-72
2021/09/11 00:14:50;;;;;;;14.95;6.85;;;;;;;;;;8224271;28;20375;-72
2021/09/11 00:18:55;;;;;;;15.48;6.85;;;;;;;;;;8193040;28;20365;-72
2021/09/11 00:23:02;;;;;;;15.50;6.47;;;;;;;;;;8225002;28;20354;-73
2021/09/11 00:27:07;;;;;;;14.75;7.80;;;;;;;;;;8224723;28;20037;-72
2021/09/11 00:31:13;;;;;;;11.20;6.63;;;;;;;;;;8224060;28;20112;-72
2021/09/11 00:35:19;;;;;;;14.60;7.07;;;;;;;;;;8225731;28;20479;-72
2021/09/11 00:39:24;;;;;;;11.27;6.18;;;;;;;;;;8225036;28;20356;-72
2021/09/11 00:43:30;;;;;;;11.57;6.85;;;;;;;;;;8223697;28;20400;-72
2021/09/11 00:47:35;;;;;;;13.18;6.22;;;;;;;;;;8225987;28;20495;-72
2021/09/11 00:51:41;;;;;;;11.90;5.88;;;;;;;;;;8222514;28;20045;-71
2021/09/11 00:55:47;;;;;;;14.30;6.43;;;;;;;;;;8223363;28;20053;-72
2021/09/11 00:59:53;;;;;;;9.80;6.15;;;;;;;;;;8223935;28;20404;-71
2021/09/11 01:03:59;;;;;;;12.30;5.75;;;;;;;;;;8225273;28;20351;-72
2021/09/11 01:08:05;;;;;;;9.32;5.85;;;;;;;;;;8222547;28;20469;-72
2021/09/11 01:12:11;;;;;;;11.40;5.75;;;;;;;;;;8224025;28;20480;-72
2021/09/11 01:16:17;;;;;;;10.15;5.43;;;;;;;;;;8225729;28;20046;-72
2021/09/11 01:20:22;;;;;;;9.80;5.65;;;;;;;;;;8228796;28;20474;-72
2021/09/11 01:24:27;;;;;;;9.43;5.35;;;;;;;;;;8230856;28;20445;-72
2021/09/11 01:28:33;;;;;;;14.25;5.45;;;;;;;;;;8232316;28;20353;-72
2021/09/11 01:32:38;;;;;;;11.48;6.45;;;;;;;;;;8229030;28;20441;-72
2021/09/11 01:36:43;;;;;;;11.98;6.22;;;;;;;;;;8228680;28;20361;-72
2021/09/11 01:40:48;;;;;;;10.10;5.72;;;;;;;;;;8230070;28;20488;-72
2021/09/11 01:44:57;;;;;;;13.13;6.20;;;;;;;;;;8228997;28;20403;-72
2021/09/11 01:49:02;;;;;;;13.00;6.75;;;;;;;;;;8228255;28;20376;-72
2021/09/11 01:53:08;;;;;;;11.45;6.18;;;;;;;;;;8227970;28;20060;-72
2021/09/11 01:57:13;;;;;;;11.85;6.13;;;;;;;;;;8230724;28;20034;-72
2021/09/11 02:01:18;;;;;;;15.98;6.57;;;;;;;;;;8228151;28;20523;-72
2021/09/11 02:05:24;;;;;;;12.32;6.60;;;;;;;;;;8227926;28;20357;-72
2021/09/11 02:09:27;;;;;;;13.40;6.63;;;;;;;;;;8229838;28;20459;-72
2021/09/11 02:13:32;;;;;;;12.57;5.88;;;;;;;;;;8231437;28;20122;-72
2021/09/11 02:17:40;;;;;;;10.68;5.65;;;;;;;;;;8227105;28;20480;-72
2021/09/11 02:21:45;;;;;;;14.45;5.80;;;;;;;;;;8227010;28;20331;-72
2021/09/11 02:25:51;;;;;;;13.35;5.88;;;;;;;;;;8227851;28;20461;-72
2021/09/11 02:29:56;;;;;;;11.32;5.43;;;;;;;;;;8227017;28;20392;-73
2021/09/11 02:34:01;;;;;;;9.07;5.30;;;;;;;;;;8230046;28;20475;-72
2021/09/11 02:38:07;;;;;;;8.27;4.63;;;;;;;;;;8227264;28;20357;-72
2021/09/11 02:42:14;;;;;;;10.07;5.70;;;;;;;;;;8211043;28;20360;-72
2021/09/11 02:46:19;;;;;;;14.55;5.78;;;;;;;;;;8243228;28;20492;-72
2021/09/11 02:50:25;;;;;;;13.57;6.10;;;;;;;;;;8226731;28;20356;-72
2021/09/11 02:54:32;;;;;;;12.68;5.88;;;;;;;;;;8229261;28;20484;-72
2021/09/11 02:58:36;;;;;;;11.40;5.70;;;;;;;;;;8226117;28;20060;-73
2021/09/11 03:02:41;;;;;;;11.88;5.57;;;;;;;;;;8228246;28;20407;-72
2021/09/11 03:06:47;;;;;;;12.52;5.68;;;;;;;;;;8227221;28;20365;-73
2021/09/11 03:10:52;;;;;;;9.57;5.20;;;;;;;;;;8227788;28;20357;-72
2021/09/11 03:15:09;;;;;;;12.77;5.73;;;;;;;;;;8238848;28;10001466;-72
2021/09/11 03:19:16;;;;;;;11.65;5.50;;;;;;;;;;8228638;28;20721;-72
2021/09/11 03:23:20;;;;;;;9.93;5.55;;;;;;;;;;8225797;28;20503;-72
2021/09/11 03:27:25;;;;;;;9.77;4.90;;;;;;;;;;8227215;28;20464;-72
2021/09/11 03:31:31;;;;;;;10.00;5.05;;;;;;;;;;8227913;28;20452;-72
2021/09/11 03:35:36;;;;;;;10.10;4.50;;;;;;;;;;8225345;28;20073;-72
2021/09/11 03:39:41;;;;;;;11.98;4.97;;;;;;;;;;8227529;28;20487;-73
2021/09/11 03:43:46;;;;;;;9.77;4.82;;;;;;;;;;8226425;28;20369;-72
2021/09/11 03:47:51;;;;;;;10.77;5.32;;;;;;;;;;8227207;28;20499;-72
2021/09/11 03:51:56;;;;;;;10.15;4.88;;;;;;;;;;8208286;28;20416;-72
2021/09/11 03:56:02;;;;;;;9.00;5.03;;;;;;;;;;8224050;28;20495;-72
2021/09/11 04:00:08;;;;;;;10.60;4.38;;;;;;;;;;8225318;28;20365;-73
2021/09/11 04:04:16;;;;;;;8.50;4.60;;;;;;;;;;8241296;28;20366;-72
2021/09/11 04:08:21;;;;;;;9.98;4.40;;;;;;;;;;8225423;28;20053;-73
2021/09/11 04:12:26;;;;;;;7.45;3.90;;;;;;;;;;8223544;28;20606;-72
2021/09/11 04:16:31;;;;;;;7.32;4.10;;;;;;;;;;8208229;28;20338;-73
2021/09/11 04:20:37;;;;;;;6.50;4.18;;;;;;;;;;8225328;28;20364;-72
2021/09/11 04:24:42;;;;;;;8.77;3.83;;;;;;;;;;8224240;28;20350;-73
2021/09/11 04:28:47;;;;;;;9.07;4.35;;;;;;;;;;8223603;28;20473;-72
2021/09/11 04:32:52;;;;;;;11.60;4.35;;;;;;;;;;8226994;28;20053;-72
2021/09/11 04:36:57;;;;;;;7.50;3.90;;;;;;;;;;8208357;28;20392;-73
2021/09/11 04:41:03;;;;;;;7.75;4.35;;;;;;;;;;8223864;28;20071;-73
2021/09/11 04:45:09;;;;;;;7.57;3.78;;;;;;;;;;8223689;28;20345;-72
2021/09/11 04:49:14;;;;;;;7.38;4.35;;;;;;;;;;8240385;28;20340;-72
2021/09/11 04:53:19;;;;;;;9.30;4.15;;;;;;;;;;8224591;28;20461;-73
2021/09/11 04:57:24;;;;;;;7.95;4.50;;;;;;;;;;8223286;28;20495;-72
2021/09/11 05:01:30;;;;;;;7.32;3.83;;;;;;;;;;8224528;28;20364;-72
2021/09/11 05:05:35;;;;;;;9.18;3.38;;;;;;;;;;8223806;28;20041;-72
2021/09/11 05:09:40;;;;;;;10.85;4.15;;;;;;;;;;8225531;28;20368;-72
2021/09/11 05:13:46;;;;;;;5.70;3.38;;;;;;;;;;8222741;28;20358;-72
2021/09/11 05:17:51;;;;;;;6.88;4.10;;;;;;;;;;8225177;28;20453;-73
2021/09/11 05:21:56;;;;;;;7.45;3.88;;;;;;;;;;8225150;28;20483;-72
2021/09/11 05:26:03;;;;;;;6.35;3.50;;;;;;;;;;8223178;28;20477;-72
2021/09/11 05:30:09;;;;;;;7.55;4.18;;;;;;;;;;8208582;28;20331;-72
2021/09/11 05:34:15;;;;;;;7.72;3.58;;;;;;;;;;8237133;28;20461;-72
2021/09/11 05:38:21;;;;;;;6.70;3.22;;;;;;;;;;8223630;28;20037;-73
2021/09/11 05:42:26;;;;;;;9.50;4.38;;;;;;;;;;8224109;28;20367;-72
2021/09/11 05:46:31;;;;;;;11.65;3.63;;;;;;;;;;8223983;28;20548;-72
2021/09/11 05:50:37;;;;;;;6.38;3.65;;;;;;;;;;8238735;28;20057;-72
2021/09/11 05:54:42;;;;;;;16.80;4.05;;;;;;;;;;8224164;28;20042;-72
2021/09/11 05:58:49;;;;;;;7.82;3.25;;;;;;;;;;8207335;28;20050;-72
2021/09/11 06:02:54;;;;;;;7.18;3.45;;;;;;;;;;8224629;28;20075;-72
2021/09/11 06:07:00;;;;;;;11.80;3.60;;;;;;;;;;8227096;28;20046;-72
2021/09/11 06:11:05;;;;;;;9.02;3.90;;;;;;;;;;8227959;28;20358;-72
2021/09/11 06:15:12;;;;;;;6.18;3.67;;;;;;;;;;8229158;28;20372;-72
2021/09/11 06:19:16;;;;;;;6.30;3.20;;;;;;;;;;8229743;28;20461;-71
2021/09/11 06:23:22;;;;;;;7.07;3.53;;;;;;;;;;8244466;28;20361;-72
2021/09/11 06:27:27;;;;;;;7.43;2.88;;;;;;;;;;8229078;28;20473;-72
2021/09/11 06:31:33;;;;;;;6.88;3.40;;;;;;;;;;8228118;28;20060;-72
2021/09/11 06:35:38;;;;;;;5.72;3.22;;;;;;;;;;8227301;28;20041;-72
2021/09/11 06:39:42;;;;;;;7.07;3.33;;;;;;;;;;8229879;28;20459;-72
2021/09/11 06:43:46;;;;;;;12.57;3.28;;;;;;;;;;8226673;28;20068;-72
2021/09/11 06:47:50;;;;;;;10.93;3.80;;;;;;;;;;8228500;28;20476;-72
2021/09/11 06:51:55;;;;;;;8.15;4.22;;;;;;;;;;8226714;28;20480;-72
2021/09/11 06:56:01;;;;;;;7.50;4.32;;;;;;;;;;8226128;28;20056;-72
2021/09/11 07:00:08;;;;;;;11.20;3.63;;;;;;;;;;8228069;28;20038;-72
2021/09/11 07:04:13;;;;;;;8.20;4.00;;;;;;;;;;8210893;28;20377;-71
2021/09/11 07:08:18;;;;;;;8.05;3.63;;;;;;;;;;8227448;28;20481;-71
2021/09/11 07:12:23;;;;;;;8.43;3.50;;;;;;;;;;8226309;28;20468;-71
2021/09/11 07:16:29;;;;;;;7.40;3.40;;;;;;;;;;8226023;28;20495;-72
2021/09/11 07:20:34;;;;;;;8.32;3.25;;;;;;;;;;8227334;28;20064;-71
2021/09/11 07:24:40;;;;;;;10.95;3.22;;;;;;;;;;8226970;28;20037;-72
2021/09/11 07:28:47;;;;;;;7.18;3.63;;;;;;;;;;8227419;28;20499;-71
2021/09/11 07:32:51;;;;;;;6.35;3.33;;;;;;;;;;8225614;28;20368;-72
2021/09/11 07:36:55;;;;;;;5.80;2.97;;;;;;;;;;8225713;28;20477;-71
2021/09/11 07:41:02;;;;;;;5.82;2.60;;;;;;;;;;8226864;28;20045;-71
2021/09/11 07:45:12;;;;;;;7.57;3.00;;;;;;;;;;8226250;28;20453;-72
2021/09/11 07:49:16;;;;;;;5.47;2.88;;;;;;;;;;8226219;28;20461;-71
2021/09/11 07:53:21;;;;;;;6.90;2.78;;;;;;;;;;8228178;28;20385;-72
2021/09/11 07:57:26;;;;;;;7.10;2.63;;;;;;;;;;8226806;28;20488;-72
2021/09/11 08:01:32;;;;;;;7.47;3.42;;;;;;;;;;8225566;28;20061;-72
2021/09/11 08:05:37;;;;;;;7.22;2.83;;;;;;;;;;8225236;28;20033;-72
2021/09/11 08:09:40;;;;;;;5.15;2.88;;;;;;;;;;8225263;28;20584;-71
2021/09/11 08:13:45;;;;;;;8.25;2.97;;;;;;;;;;8228311;28;20480;-73
2021/09/11 08:17:51;;;;;;;8.95;2.70;;;;;;;;;;8226831;28;20053;-72
2021/09/11 08:21:56;;;;;;;5.82;2.72;;;;;;;;;;8224733;28;20350;-72
2021/09/11 08:26:02;;;;;;;6.13;2.65;;;;;;;;;;8224058;28;20049;-72
2021/09/11 08:30:07;;;;;;;4.95;2.67;;;;;;;;;;8223093;28;20388;-72
2021/09/11 08:34:12;;;;;;;4.07;2.20;;;;;;;;;;8226348;28;20365;-72
2021/09/11 08:38:18;;;;;;;8.48;2.45;;;;;;;;;;8223281;28;20412;-72
2021/09/11 08:42:22;;;;;;;5.18;2.53;;;;;;;;;;8224832;28;20495;-72
2021/09/11 08:46:31;;;;;;;7.22;2.38;;;;;;;;;;8224890;28;20353;-72
2021/09/11 08:50:36;;;;;;;7.00;2.70;;;;;;;;;;8224436;28;20108;-73
2021/09/11 08:54:41;;;;;;;4.10;2.37;;;;;;;;;;8227174;28;20041;-73
2021/09/11 08:58:46;;;;;;;6.93;2.30;;;;;;;;;;8240054;28;20335;-72
2021/09/11 09:02:52;;;;;;;5.53;2.53;;;;;;;;;;8227271;28;20045;-73
2021/09/11 09:07:00;;;;;;;7.72;2.20;;;;;;;;;;8223760;28;20392;-72
2021/09/11 09:11:31;;;;;;;4.00;2.22;;;;;;;;;;8225169;28;20473;-72
2021/09/11 09:15:37;;;;;;;4.05;2.30;;;;;;;;;;8204300;28;20453;-73
2021/09/11 09:19:42;;;;;;;3.85;2.10;;;;;;;;;;8225832;28;20349;-72
2021/09/11 09:23:57;;;;;;;5.57;2.10;;;;;;;;;;8239687;28;20072;-72
2021/09/11 09:28:09;;;;;;;8.05;2.47;;;;;;;;;;8224130;28;20434;-73
2021/09/11 09:32:14;;;;;;;3.38;2.05;;;;;;;;;;8225033;28;20392;-73
2021/09/11 09:36:19;;;;;;;5.55;2.17;;;;;;;;;;8224319;28;20380;-72
2021/09/11 09:40:51;;;;;;;5.32;2.30;;;;;;;;;;8228731;28;20349;-72
2021/09/11 09:44:56;;;;;;;3.97;1.73;;;;;;;;;;8229686;28;20377;-72
2021/09/11 09:49:02;;;;;;;4.10;1.77;;;;;;;;;;8230603;28;20396;-72
2021/09/11 09:53:09;;;;;;;6.45;2.03;;;;;;;;;;8228898;28;20353;-73
2021/09/11 09:57:14;;;;;;;2.63;1.75;;;;;;;;;;8230562;28;21749;-72
2021/09/11 10:01:22;;;;;;;6.10;1.83;;;;;;;;;;8229175;28;20336;-73
2021/09/11 10:05:30;;;;;;;8.65;1.90;;;;;;;;;;8229616;28;20050;-73
2021/09/11 10:09:37;;;;;;;3.97;1.77;;;;;;;;;;8228781;28;20365;-72
2021/09/11 10:13:59;;;;;;;3.47;1.80;;;;;;;;;;8228284;28;20373;-73
2021/09/11 10:18:26;;;;;;;6.90;1.88;;;;;;;;;;8229088;28;20469;-72
2021/09/11 10:22:31;;;;;;;3.45;1.95;;;;;;;;;;8230546;28;20338;-74
2021/09/11 10:26:54;;;;;;;8.25;1.88;;;;;;;;;;8228772;28;20067;-72
2021/09/11 10:31:12;;;;;;;7.13;1.85;;;;;;;;;;8227464;28;20042;-72
2021/09/11 10:35:24;;;;;;;;;;;;;;;;;;8228491;28;20473;-73
2021/09/11 10:39:30;;;;;;;3.55;1.88;;;;;;;;;;8209780;28;20356;-72
2021/09/11 10:43:34;;;;;;;7.10;2.22;;;;;;;;;;8226986;28;20491;-73
2021/09/11 10:47:45;;;;;;;14.82;2.25;;;;;;;;;;8229513;28;20335;-72
2021/09/11 10:52:10;;;;;;;4.15;2.28;;;;;;;;;;8226627;28;20377;-73
2021/09/11 10:56:30;;;;;;;7.20;2.30;;;;;;;;;;8228203;28;20053;-73
2021/09/11 11:00:35;;;;;;;3.92;1.77;;;;;;;;;;8227074;28;20368;-72
2021/09/11 11:04:52;;;;;;;12.07;2.70;;;;;;;;;;8227801;28;20045;-72
2021/09/11 11:08:59;;;;;;;13.07;2.28;;;;;;;;;;8226810;28;20080;-73
2021/09/11 11:13:04;;;;;;;7.95;2.10;;;;;;;;;;8227027;28;20064;-72
2021/09/11 11:17:09;;;;;;;9.90;2.47;;;;;;;;;;8226752;28;20441;-73
2021/09/11 11:21:19;;;;;;;4.90;2.50;;;;;;;;;;8225667;28;20041;-72
2021/09/11 11:25:38;;;;;;;4.35;2.28;;;;;;;;;;8223500;28;20325;-72
2021/09/11 11:29:46;;;;;;;2.15;1.50;;;;;;;;;;8221050;28;20464;-73
2021/09/11 11:33:51;;;;;;;7.95;2.10;;;;;;;;;;8224763;28;20468;-71
2021/09/11 11:37:57;;;;;;;5.05;2.13;;;;;;;;;;8226405;28;20491;-73
2021/09/11 11:42:22;;;;;;;5.72;2.28;;;;;;;;;;8216492;28;20455;-74
2021/09/11 11:46:29;;;;;;;6.90;2.13;;;;;;;;;;8223255;28;20331;-72
2021/09/11 12:16:24;;;;;;;7.22;1.90;;;;;;;;;;8330571;27;1320687;-73
2021/09/11 12:20:32;;;;;;;4.90;2.10;;;;;;;;;;8352358;28;20405;-74
2021/09/11 12:24:37;;;;;;;6.55;1.77;;;;;;;;;;8251969;28;20391;-71
2021/09/11 12:28:44;;;;;;;4.07;1.52;;;;;;;;;;8268210;28;20045;-72
2021/09/11 12:32:50;;;;;;;4.47;1.80;;;;;;;;;;8219871;28;20046;-73
2021/09/11 12:37:00;;;;;;;3.13;1.60;;;;;;;;;;8231199;28;20510;-71
2021/09/11 12:41:06;;;;;;;5.35;1.42;;;;;;;;;;8234205;28;20049;-73
2021/09/11 12:45:11;;;;;;;4.47;1.77;;;;;;;;;;8231154;28;20721;-73
2021/09/11 12:49:16;;;;;;;10.90;1.63;;;;;;;;;;8232062;28;20357;-71
2021/09/11 12:53:20;;;;;;;5.88;2.28;;;;;;;;;;8233895;28;20380;-73
2021/09/11 12:57:25;;;;;;;7.88;2.50;;;;;;;;;;8232647;28;20473;-72
2021/09/11 13:01:33;;;;;;;4.25;1.92;;;;;;;;;;8231279;28;20483;-72
2021/09/11 13:05:38;;;;;;;5.45;2.33;;;;;;;;;;8234178;28;20331;-72
2021/09/11 13:09:42;;;;;;;11.55;2.90;;;;;;;;;;8240060;28;20441;-72
2021/09/11 13:13:47;;;;;;;8.07;2.00;;;;;;;;;;8224991;28;20369;-72
2021/09/11 13:17:52;;;;;;;6.35;2.33;;;;;;;;;;8217808;28;20480;-73
2021/09/11 16:50:26;;;;;;;45.50;21.47;;;;;;;;;;8266712;27;1932421;-71
2021/09/11 16:54:31;;;;;;;43.38;20.77;;;;;;;;;;8267637;28;20485;-71
2021/09/11 16:58:37;;;;;;;38.03;19.48;;;;;;;;;;8300441;28;20359;-71
2021/09/11 17:02:43;;;;;;;46.28;20.35;;;;;;;;;;8303354;28;20483;-71
2021/09/11 17:06:48;;;;;;;29.17;14.95;;;;;;;;;;8269202;28;20085;-71
2021/09/11 17:10:55;;;;;;;24.25;11.90;;;;;;;;;;8269986;28;20393;-73
2021/09/11 17:15:01;;;;;;;25.40;12.35;;;;;;;;;;8277472;28;20375;-72
2021/09/11 17:19:07;;;;;;;26.05;14.07;;;;;;;;;;8277701;28;20498;-72
2021/09/11 17:23:13;;;;;;;39.95;19.10;;;;;;;;;;8298960;28;20351;-72
2021/09/11 17:27:18;;;;;;;75.63;30.45;;;;;;;;;;8299906;28;20379;-72
2021/09/11 17:31:22;;;;;;;51.45;24.30;;;;;;;;;;8299150;28;20355;-72
2021/09/11 17:35:29;;;;;;;34.13;14.63;;;;;;;;;;8296140;28;20336;-71
2021/09/11 17:39:35;;;;;;;46.15;19.90;;;;;;;;;;8305292;28;20381;-71
2021/09/11 17:43:39;;;;;;;67.00;31.05;;;;;;;;;;8284591;28;20480;-71
2021/09/11 17:47:43;;;;;;;23.42;9.77;;;;;;;;;;8282613;28;20383;-73
2021/09/11 17:51:48;;;;;;;19.25;10.38;;;;;;;;;;8281254;28;20399;-73
2021/09/11 17:55:53;;;;;;;32.95;14.23;;;;;;;;;;8300397;28;20375;-71
2021/09/11 17:59:56;;;;;;;39.80;18.27;;;;;;;;;;8286841;28;20048;-71
2021/09/11 18:04:02;;;;;;;30.05;13.82;;;;;;;;;;8274496;28;20383;-71
2021/09/11 18:08:08;;;;;;;22.58;10.95;;;;;;;;;;8277745;28;20387;-72
2021/09/11 18:12:12;;;;;;;29.40;11.43;;;;;;;;;;8260340;28;20455;-73
2021/09/11 18:16:16;;;;;;;31.15;14.98;;;;;;;;;;8253484;28;20032;-72
2021/09/11 18:20:22;;;;;;;32.40;15.20;;;;;;;;;;8251582;28;20045;-72
2021/09/11 18:24:26;;;;;;;29.02;14.48;;;;;;;;;;8259576;28;20048;-72
2021/09/11 18:28:30;;;;;;;36.42;12.52;;;;;;;;;;8272511;28;20059;-71
2021/09/11 18:32:34;;;;;;;32.83;12.43;;;;;;;;;;8258545;28;20340;-72
2021/09/11 18:36:41;;;;;;;22.23;12.43;;;;;;;;;;8276265;28;20391;-72
2021/09/11 18:40:46;;;;;;;22.38;12.38;;;;;;;;;;8245663;28;20399;-72
2021/09/11 18:44:50;;;;;;;25.60;11.43;;;;;;;;;;8172302;28;20613;-72
2021/09/11 18:48:54;;;;;;;20.20;9.75;;;;;;;;;;8241168;28;20053;-72
2021/09/11 18:52:59;;;;;;;23.63;9.40;;;;;;;;;;8239882;28;20098;-72
2021/09/11 18:57:04;;;;;;;22.00;9.90;;;;;;;;;;8225314;28;20482;-72
2021/09/11 19:01:09;;;;;;;18.30;9.32;;;;;;;;;;8225711;28;20356;-72
2021/09/11 19:05:14;;;;;;;16.83;8.88;;;;;;;;;;8258199;28;20509;-71
2021/09/11 19:09:21;;;;;;;14.15;8.02;;;;;;;;;;8240991;28;20396;-71
2021/09/11 19:13:27;;;;;;;22.95;13.38;;;;;;;;;;8239199;28;20494;-71
2021/09/11 19:17:33;;;;;;;20.15;10.70;;;;;;;;;;8239722;28;20445;-72
2021/09/11 19:21:37;;;;;;;33.85;15.70;;;;;;;;;;8256864;28;20045;-72
2021/09/11 19:25:47;;;;;;;28.75;14.07;;;;;;;;;;8240201;28;20056;-72
2021/09/11 19:29:51;;;;;;;28.55;15.25;;;;;;;;;;8255340;28;20490;-72
2021/09/11 19:33:56;;;;;;;22.77;10.82;;;;;;;;;;8252272;28;20475;-72
2021/09/11 19:38:07;;;;;;;21.08;10.15;;;;;;;;;;8255070;28;20490;-72
2021/09/11 19:42:11;;;;;;;21.50;11.02;;;;;;;;;;8238859;28;20682;-72
2021/09/11 19:46:16;;;;;;;27.30;15.77;;;;;;;;;;8255776;28;20502;-72
2021/09/11 19:50:24;;;;;;;23.00;10.07;;;;;;;;;;8207281;28;20049;-73
2021/09/11 19:54:28;;;;;;;19.73;8.10;;;;;;;;;;8194180;28;20337;-72
2021/09/11 19:58:34;;;;;;;19.13;8.32;;;;;;;;;;8193424;28;20361;-72
2021/09/11 20:02:41;;;;;;;21.85;9.48;;;;;;;;;;8194741;28;20469;-72
2021/09/11 20:06:45;;;;;;;19.35;9.05;;;;;;;;;;8203140;28;20464;-72
2021/09/11 20:10:50;;;;;;;18.00;9.18;;;;;;;;;;8224226;28;20041;-71
2021/09/11 20:14:55;;;;;;;20.90;9.52;;;;;;;;;;8224438;28;20338;-72
2021/09/11 20:18:59;;;;;;;19.02;9.10;;;;;;;;;;8207196;28;20380;-72
2021/09/11 20:23:04;;;;;;;20.67;10.73;;;;;;;;;;8208780;28;20472;-73
2021/09/11 20:27:09;;;;;;;22.67;10.73;;;;;;;;;;8206423;28;20050;-74
2021/09/11 20:31:14;;;;;;;21.25;11.15;;;;;;;;;;8206778;28;20452;-71
2021/09/11 20:35:19;;;;;;;23.75;11.07;;;;;;;;;;8206594;28;20368;-72
2021/09/11 20:39:23;;;;;;;24.88;12.07;;;;;;;;;;8223391;28;20493;-73
2021/09/11 20:43:26;;;;;;;22.90;11.63;;;;;;;;;;8222051;28;20488;-71
2021/09/11 20:47:32;;;;;;;23.10;11.23;;;;;;;;;;8227163;28;20353;-71
2021/09/11 20:51:36;;;;;;;24.15;10.68;;;;;;;;;;8255957;28;20368;-71
2021/09/11 20:55:42;;;;;;;30.55;12.10;;;;;;;;;;8254944;28;20064;-71
2021/09/11 20:59:46;;;;;;;21.88;10.18;;;;;;;;;;8252892;28;20343;-72
2021/09/11 21:03:50;;;;;;;23.70;10.57;;;;;;;;;;8254871;28;20336;-71
2021/09/11 21:07:56;;;;;;;23.92;11.15;;;;;;;;;;8256370;28;20395;-71
2021/09/11 21:12:00;;;;;;;25.23;11.50;;;;;;;;;;8239000;28;20029;-72
2021/09/11 21:16:04;;;;;;;25.08;10.35;;;;;;;;;;8251723;28;20349;-71
2021/09/11 21:20:10;;;;;;;23.20;9.60;;;;;;;;;;8235826;28;20083;-71
2021/09/11 21:24:14;;;;;;;23.42;10.20;;;;;;;;;;8256586;28;20067;-71
2021/09/11 21:28:18;;;;;;;25.25;10.13;;;;;;;;;;8255626;28;20353;-71
2021/09/11 21:32:22;;;;;;;24.10;9.70;;;;;;;;;;8243005;28;20349;-71
2021/09/11 21:36:26;;;;;;;16.73;8.45;;;;;;;;;;8209642;28;20049;-72
2021/09/11 21:40:30;;;;;;;17.20;8.32;;;;;;;;;;8229144;28;20068;-72
2021/09/11 21:44:35;;;;;;;16.17;8.43;;;;;;;;;;8228849;28;20352;-71
2021/09/11 21:48:40;;;;;;;26.02;8.55;;;;;;;;;;8228212;28;20476;-71
2021/09/11 21:52:46;;;;;;;18.20;8.48;;;;;;;;;;8230382;28;20384;-71
2021/09/11 21:56:52;;;;;;;16.83;7.45;;;;;;;;;;8211973;28;20131;-71
2021/09/11 22:00:59;;;;;;;17.48;7.43;;;;;;;;;;8210672;28;20033;-72
2021/09/11 22:05:04;;;;;;;16.75;6.57;;;;;;;;;;8229433;28;20499;-72
2021/09/11 22:09:08;;;;;;;18.10;7.15;;;;;;;;;;8208488;28;20061;-71
2021/09/11 22:13:12;;;;;;;13.35;6.93;;;;;;;;;;8228390;28;20503;-71
2021/09/11 22:17:18;;;;;;;13.32;7.20;;;;;;;;;;8229599;28;20360;-71
2021/09/11 22:21:22;;;;;;;15.82;6.75;;;;;;;;;;8227598;28;20444;-71
2021/09/11 22:25:28;;;;;;;15.82;7.00;;;;;;;;;;8226882;28;20306;-71
2021/09/11 22:29:33;;;;;;;12.02;6.65;;;;;;;;;;8209881;28;20340;-71
2021/09/11 22:33:41;;;;;;;12.95;6.43;;;;;;;;;;8209575;28;20453;-71
2021/09/11 22:37:46;;;;;;;10.90;6.07;;;;;;;;;;8210009;28;20061;-71
2021/09/11 22:41:51;;;;;;;12.32;6.32;;;;;;;;;;8226590;28;20444;-71
2021/09/11 22:45:56;;;;;;;12.30;7.00;;;;;;;;;;8192426;28;20080;-71
2021/09/11 22:50:01;;;;;;;18.38;7.97;;;;;;;;;;8200182;28;20461;-71
2021/09/11 22:54:05;;;;;;;14.48;6.38;;;;;;;;;;8194960;28;20345;-71
2021/09/11 22:58:10;;;;;;;13.57;6.35;;;;;;;;;;8157885;28;20033;-71
2021/09/11 23:02:16;;;;;;;11.80;6.07;;;;;;;;;;8195039;28;20405;-71
2021/09/11 23:06:21;;;;;;;11.77;5.57;;;;;;;;;;8194101;28;20393;-71
2021/09/11 23:10:27;;;;;;;15.35;6.95;;;;;;;;;;8178153;28;20373;-72
2021/09/11 23:14:31;;;;;;;11.23;5.95;;;;;;;;;;8191347;28;20469;-72
2021/09/11 23:18:35;;;;;;;17.52;6.50;;;;;;;;;;8193478;28;20709;-71
2021/09/11 23:22:40;;;;;;;14.85;6.28;;;;;;;;;;8174988;28;20050;-72
2021/09/11 23:26:44;;;;;;;20.20;7.65;;;;;;;;;;8176488;28;20508;-72
2021/09/11 23:30:48;;;;;;;19.38;6.80;;;;;;;;;;8188437;28;20069;-71
2021/09/11 23:34:52;;;;;;;14.38;6.60;;;;;;;;;;8174879;28;20046;-71
2021/09/11 23:38:55;;;;;;;13.68;6.85;;;;;;;;;;8194746;28;20384;-71
2021/09/11 23:43:02;;;;;;;15.60;6.70;;;;;;;;;;8174616;28;20404;-71
2021/09/11 23:47:07;;;;;;;15.82;7.07;;;;;;;;;;8192288;28;20362;-72
2021/09/11 23:51:11;;;;;;;13.88;6.68;;;;;;;;;;8192578;28;20481;-72
2021/09/11 23:55:19;;;;;;;12.45;6.00;;;;;;;;;;8174860;28;20327;-71
2021/09/11 23:59:28;;;;;;;15.82;7.00;;;;;;;;;;8173253;28;20064;-73
